Time;durP1;ratioP1;P1;durP2;ratioP2;P2;SDS_P1;SDS_P2;PMS_P1;PMS_P2;Temp;Humidity;BMP_temperature;BMP_pressure;BME280_temperature;BME280_humidity;BME280_pressure;Samples;Min_cycle;Max_cycle;Signal;HPM_P1;HPM_P2
2021/04/26 00:01:26;;;;;;;3.15;1.98;;;;;;;8.20;43.15;100928.31;5051570;28;20040;-84
2021/04/26 00:03:51;;;;;;;3.42;1.83;;;;;;;8.14;43.26;100922.72;5058732;28;20067;-85
2021/04/26 00:06:17;;;;;;;4.60;2.20;;;;;;;8.23;42.84;100925.44;5045963;28;20042;-84
2021/04/26 00:08:42;;;;;;;6.38;1.88;;;;;;;8.18;43.02;100924.16;5046966;28;20094;-86
2021/04/26 00:11:07;;;;;;;3.40;1.90;;;;;;;8.08;43.50;100930.16;5048430;28;20116;-84
2021/04/26 00:13:33;;;;;;;4.38;1.88;;;;;;;8.09;43.16;100931.00;5054853;28;20040;-85
2021/04/26 00:15:58;;;;;;;4.35;1.85;;;;;;;8.04;43.09;100927.91;5038787;28;20071;-85
2021/04/26 00:18:23;;;;;;;3.53;1.80;;;;;;;8.05;44.69;100927.75;5041753;28;20052;-85
2021/04/26 00:20:49;;;;;;;2.88;1.40;;;;;;;7.90;44.94;100941.34;5045645;28;20040;-85
2021/04/26 00:23:14;;;;;;;4.57;1.73;;;;;;;7.75;44.50;100936.38;5025875;28;20098;-85
2021/04/26 00:25:40;;;;;;;4.13;1.58;;;;;;;7.77;44.48;100934.47;5045732;28;20031;-85
2021/04/26 00:28:05;;;;;;;5.22;1.83;;;;;;;7.78;43.50;100927.38;5072792;28;20040;-85
2021/04/26 00:30:31;;;;;;;4.90;2.10;;;;;;;7.67;45.53;100938.75;5059103;28;20041;-84
2021/04/26 00:32:58;;;;;;;3.67;1.83;;;;;;;7.57;45.01;100941.28;5067332;28;20511;-85
2021/04/26 00:35:25;;;;;;;5.25;2.10;;;;;;;7.52;44.92;100945.25;5066445;28;20034;-85
2021/04/26 00:37:51;;;;;;;2.25;1.27;;;;;;;7.47;45.96;100939.53;5057370;28;20086;-84
2021/04/26 00:40:19;;;;;;;3.53;1.38;;;;;;;7.36;47.73;100935.09;5048667;28;20036;-84
2021/04/26 00:42:44;;;;;;;3.80;1.48;;;;;;;7.19;46.91;100934.63;5039141;28;20315;-84
2021/04/26 00:45:14;;;;;;;2.47;1.55;;;;;;;7.15;47.13;100930.59;5045145;28;20041;-85
2021/04/26 00:47:41;;;;;;;3.78;1.90;;;;;;;7.29;45.58;100932.09;5069115;28;20093;-84
2021/04/26 00:50:10;;;;;;;4.80;2.20;;;;;;;7.45;44.77;100929.13;5042773;28;20082;-85
2021/04/26 00:52:36;;;;;;;5.25;2.25;;;;;;;7.59;44.17;100933.28;5044380;28;20037;-84
2021/04/26 00:55:03;;;;;;;7.13;2.35;;;;;;;7.52;44.52;100927.66;5043108;28;20048;-86
2021/04/26 00:57:28;;;;;;;9.93;2.72;;;;;;;7.48;45.92;100928.88;5050526;28;20060;-85
2021/04/26 00:59:53;;;;;;;5.28;2.30;;;;;;;7.61;44.22;100936.66;5051932;28;20041;-86
2021/04/26 01:02:19;;;;;;;4.75;2.13;;;;;;;7.50;45.32;100932.22;5048879;28;20055;-86
2021/04/26 01:04:44;;;;;;;4.03;1.98;;;;;;;7.47;44.81;100921.13;5042789;28;20080;-86
2021/04/26 01:07:11;;;;;;;6.40;2.17;;;;;;;7.59;44.43;100915.69;5048365;28;20104;-86
2021/04/26 01:09:36;;;;;;;5.15;2.50;;;;;;;7.52;44.78;100908.41;5066742;28;20128;-87
2021/04/26 01:12:16;;;;;;;4.70;2.00;;;;;;;7.47;45.18;100918.47;5045087;28;20110;-86
2021/04/26 01:14:53;;;;;;;5.47;2.40;;;;;;;7.39;45.23;100917.31;5062724;28;20113;-86
2021/04/26 01:17:26;;;;;;;4.75;2.20;;;;;;;7.36;45.15;100911.44;5065446;28;20036;-85
2021/04/26 01:20:14;;;;;;;3.92;1.60;;;;;;;7.39;45.31;100900.69;5064800;28;20041;-85
2021/04/26 01:22:58;;;;;;;3.38;1.70;;;;;;;7.31;46.57;100903.91;5031088;28;20048;-86
2021/04/26 01:25:27;;;;;;;4.15;2.20;;;;;;;7.22;45.88;100891.47;5061898;28;20049;-86
2021/04/26 01:28:18;;;;;;;5.45;2.10;;;;;;;7.19;46.22;100894.34;5052044;28;20033;-86
2021/04/26 01:31:13;;;;;;;3.75;1.80;;;;;;;7.18;46.08;100883.00;5047297;28;20040;-86
2021/04/26 01:34:00;;;;;;;2.80;1.75;;;;;;;7.14;47.09;100886.81;5042304;28;20041;-86
2021/04/26 01:36:27;;;;;;;5.35;2.00;;;;;;;7.16;46.24;100881.44;5030198;28;20045;-86
2021/04/26 01:38:56;;;;;;;6.03;1.98;;;;;;;7.17;45.99;100870.78;5049144;28;20250;-86
2021/04/26 01:41:24;;;;;;;4.65;2.30;;;;;;;7.10;46.39;100859.09;5044437;28;20041;-86
2021/04/26 01:43:53;;;;;;;5.43;2.13;;;;;;;7.13;46.44;100863.28;5041292;28;20429;-86
2021/04/26 01:46:19;;;;;;;4.65;2.30;;;;;;;7.16;46.06;100857.78;5040754;28;20028;-86
2021/04/26 01:48:48;;;;;;;6.07;2.80;;;;;;;7.19;46.00;100862.78;5044708;28;20034;-85
2021/04/26 01:51:14;;;;;;;5.00;2.80;;;;;;;7.23;45.69;100851.06;5043666;28;20037;-86
2021/04/26 01:53:42;;;;;;;5.55;2.55;;;;;;;7.18;46.03;100848.81;5058402;28;20040;-85
2021/04/26 01:56:09;;;;;;;4.40;1.80;;;;;;;7.07;47.93;100846.19;5046246;28;20059;-86
2021/04/26 01:58:39;;;;;;;4.32;2.10;;;;;;;7.10;46.20;100851.19;5062789;28;20097;-85
2021/04/26 02:01:13;;;;;;;4.68;2.15;;;;;;;7.00;46.55;100853.72;5040512;28;20043;-85
2021/04/26 02:03:39;;;;;;;5.13;2.40;;;;;;;6.98;46.60;100831.13;5065137;28;20052;-85
2021/04/26 02:06:05;;;;;;;4.93;2.25;;;;;;;7.01;46.81;100831.75;5059913;28;20603;-86
2021/04/26 02:08:33;;;;;;;5.35;2.25;;;;;;;7.04;46.13;100835.09;5060229;28;20043;-87
2021/04/26 02:10:59;;;;;;;4.78;2.15;;;;;;;7.05;46.19;100828.84;5070612;28;20036;-85
2021/04/26 02:13:25;;;;;;;4.70;2.35;;;;;;;7.02;46.09;100828.13;5074526;28;20032;-86
2021/04/26 02:15:54;;;;;;;6.03;2.10;;;;;;;7.00;46.21;100824.78;5077691;28;20047;-86
2021/04/26 02:18:20;;;;;;;6.60;2.33;;;;;;;7.09;45.69;100825.03;5054285;28;20025;-84
2021/04/26 02:20:46;;;;;;;6.05;2.40;;;;;;;7.01;45.97;100821.22;5067573;28;20040;-86
2021/04/26 02:23:12;;;;;;;4.50;2.00;;;;;;;6.98;46.18;100813.59;5032938;28;20120;-87
2021/04/26 02:25:38;;;;;;;5.75;2.55;;;;;;;7.02;46.03;100817.63;5049025;28;20043;-86
2021/04/26 02:28:03;;;;;;;4.07;2.30;;;;;;;6.97;46.01;100809.28;5044925;28;20067;-86
2021/04/26 02:30:29;;;;;;;3.03;2.00;;;;;;;6.86;46.46;100805.81;5073287;28;20044;-85
2021/04/26 02:33:13;;;;;;;3.17;1.90;;;;;;;6.92;46.16;100800.09;5067719;28;20037;-85
2021/04/26 02:35:47;;;;;;;6.93;2.53;;;;;;;6.96;45.89;100797.09;5030328;28;20037;-84
2021/04/26 02:38:17;;;;;;;3.90;2.20;;;;;;;6.85;46.46;100794.47;5065421;28;20033;-84
2021/04/26 02:40:52;;;;;;;5.90;2.50;;;;;;;6.92;46.20;100785.13;5055743;28;20055;-84
2021/04/26 02:43:19;;;;;;;5.20;2.58;;;;;;;6.83;46.23;100788.50;5081446;28;20037;-87
2021/04/26 02:45:50;;;;;;;3.25;2.20;;;;;;;6.88;46.18;100781.06;5049883;28;20029;-84
2021/04/26 02:48:17;;;;;;;4.85;2.80;;;;;;;6.94;45.65;100769.25;5046328;28;20052;-85
2021/04/26 02:50:42;;;;;;;4.45;2.60;;;;;;;6.92;46.03;100782.50;5071851;28;20029;-85
2021/04/26 02:53:12;;;;;;;4.22;2.40;;;;;;;6.86;46.19;100779.53;5068987;28;20029;-85
2021/04/26 02:55:39;;;;;;;5.25;2.60;;;;;;;6.97;45.74;100776.88;5076162;28;20049;-86
2021/04/26 02:58:05;;;;;;;5.68;2.45;;;;;;;6.83;46.26;100764.84;5064515;28;20032;-86
2021/04/26 03:00:31;;;;;;;3.42;2.20;;;;;;;6.70;46.46;100764.16;5049849;28;20029;-86
2021/04/26 03:02:57;;;;;;;3.97;2.20;;;;;;;6.73;46.61;100763.91;5065164;28;20028;-85
2021/04/26 03:05:24;;;;;;;5.70;2.60;;;;;;;6.81;46.27;100766.75;5054761;28;20098;-84
2021/04/26 03:07:49;;;;;;;5.30;2.55;;;;;;;6.73;46.29;100763.91;5057299;28;20029;-85
2021/04/26 03:10:16;;;;;;;4.85;2.47;;;;;;;6.69;47.59;100762.47;5056597;28;20174;-84
2021/04/26 03:12:45;;;;;;;4.28;2.33;;;;;;;6.72;47.92;100767.47;5050588;28;20612;-87
2021/04/26 03:15:14;;;;;;;5.38;2.58;;;;;;;6.69;46.68;100768.56;5061855;28;20047;-85
2021/04/26 03:17:40;;;;;;;4.80;2.47;;;;;;;6.63;47.20;100770.84;5069320;28;20036;-85
2021/04/26 03:20:10;;;;;;;6.05;2.80;;;;;;;6.62;46.87;100767.34;5059257;28;20032;-84
2021/04/26 03:22:37;;;;;;;4.70;2.97;;;;;;;6.63;46.92;100768.22;5063818;28;20090;-85
2021/04/26 03:25:03;;;;;;;4.50;2.35;;;;;;;6.57;47.49;100770.34;5049135;28;20024;-86
2021/04/26 03:27:29;;;;;;;6.95;2.40;;;;;;;6.47;49.17;100769.41;5070817;28;20028;-86
2021/04/26 03:29:58;;;;;;;4.47;2.70;;;;;;;6.57;46.93;100783.47;5076178;28;20028;-87
2021/04/26 03:32:24;;;;;;;5.82;2.65;;;;;;;6.58;46.98;100786.97;5062280;28;20037;-85
2021/04/26 03:34:50;;;;;;;6.65;2.45;;;;;;;6.48;47.28;100778.09;5063480;28;20046;-85
2021/04/26 03:37:17;;;;;;;6.82;2.85;;;;;;;6.52;47.15;100777.75;5048291;28;20048;-85
2021/04/26 03:39:44;;;;;;;6.93;2.75;;;;;;;6.43;47.42;100775.84;5067076;28;20035;-84
2021/04/26 03:42:16;;;;;;;3.33;2.20;;;;;;;6.30;48.51;100772.50;5076080;28;20040;-85
2021/04/26 03:44:46;;;;;;;4.70;2.20;;;;;;;6.28;49.38;100772.63;5058451;28;20174;-84
2021/04/26 03:47:12;;;;;;;3.00;1.90;;;;;;;6.18;50.06;100762.94;5065556;28;20105;-83
2021/04/26 03:49:37;;;;;;;3.90;2.00;;;;;;;6.13;48.91;100763.31;5044402;28;20090;-84
2021/04/26 03:52:04;;;;;;;3.65;2.03;;;;;;;6.06;51.39;100765.53;5080851;28;20467;-84
2021/04/26 03:54:29;;;;;;;4.65;2.47;;;;;;;6.04;49.47;100756.13;5051360;28;20045;-85
2021/04/26 03:56:54;;;;;;;3.00;2.10;;;;;;;6.01;50.92;100761.63;5042823;28;20838;-85
2021/04/26 03:59:20;;;;;;;3.22;2.00;;;;;;;5.84;51.98;100773.31;5051785;28;20054;-84
2021/04/26 04:01:45;;;;;;;4.38;2.58;;;;;;;5.93;49.72;100767.38;5053936;28;20043;-84
2021/04/26 04:04:11;;;;;;;4.70;2.83;;;;;;;5.87;50.31;100776.56;5068731;28;20122;-84
2021/04/26 04:06:37;;;;;;;4.80;2.42;;;;;;;5.77;51.14;100774.72;5047383;28;20093;-85
2021/04/26 04:09:06;;;;;;;3.95;2.53;;;;;;;5.75;49.94;100767.81;5048260;28;20048;-84
2021/04/26 04:11:32;;;;;;;4.30;2.33;;;;;;;5.72;50.27;100775.06;5058533;28;20116;-85
2021/04/26 04:13:57;;;;;;;4.63;2.20;;;;;;;5.70;50.95;100775.22;5067316;28;20503;-84
2021/04/26 04:16:23;;;;;;;4.70;2.58;;;;;;;5.63;50.56;100775.78;5045016;28;20039;-84
2021/04/26 04:18:50;;;;;;;5.07;2.60;;;;;;;5.69;50.33;100777.94;5044625;28;20037;-84
2021/04/26 04:21:16;;;;;;;4.78;2.20;;;;;;;5.69;54.03;100773.53;5064825;28;20081;-84
2021/04/26 04:23:41;;;;;;;3.95;2.55;;;;;;;5.54;53.04;100767.63;5073424;28;20225;-85
2021/04/26 04:26:08;;;;;;;3.83;2.55;;;;;;;5.53;52.24;100776.47;5060547;28;20098;-85
2021/04/26 04:28:34;;;;;;;3.95;2.63;;;;;;;5.47;52.70;100773.44;5065068;28;20032;-84
2021/04/26 04:31:00;;;;;;;4.72;3.15;;;;;;;5.52;52.02;100780.00;5057945;28;20037;-84
2021/04/26 04:33:25;;;;;;;4.95;2.42;;;;;;;5.57;52.79;100777.06;5054608;28;20033;-85
2021/04/26 04:35:51;;;;;;;6.50;2.55;;;;;;;5.50;51.61;100775.84;5053445;28;20059;-84
2021/04/26 04:38:17;;;;;;;3.08;1.90;;;;;;;5.49;55.42;100782.03;5059497;28;20033;-84
2021/04/26 04:40:43;;;;;;;4.68;2.20;;;;;;;5.48;53.16;100783.84;5070272;28;20065;-85
2021/04/26 04:43:08;;;;;;;5.63;2.80;;;;;;;5.53;51.44;100794.00;5050849;28;20104;-85
2021/04/26 04:45:33;;;;;;;3.88;2.47;;;;;;;5.67;50.43;100795.56;5048443;28;20519;-85
2021/04/26 04:47:59;;;;;;;3.45;2.20;;;;;;;5.71;52.24;100794.41;5027308;28;20034;-85
2021/04/26 04:50:24;;;;;;;3.90;2.38;;;;;;;5.77;50.82;100800.97;5065377;28;20055;-84
2021/04/26 04:52:50;;;;;;;4.45;2.53;;;;;;;5.79;52.52;100797.28;5049172;28;20025;-84
2021/04/26 04:55:15;;;;;;;4.15;2.30;;;;;;;5.86;52.03;100798.50;5082671;28;20029;-84
2021/04/26 04:57:41;;;;;;;4.18;2.30;;;;;;;5.86;51.92;100800.28;5046778;28;20029;-85
2021/04/26 05:00:07;;;;;;;4.18;2.10;;;;;;;5.92;51.72;100800.69;5077440;28;20037;-85
2021/04/26 05:02:33;;;;;;;3.58;2.03;;;;;;;5.94;50.71;100801.44;5046963;28;20091;-84
2021/04/26 05:04:58;;;;;;;7.22;2.80;;;;;;;6.02;49.96;100800.84;5047192;28;20033;-84
2021/04/26 05:07:24;;;;;;;3.63;2.38;;;;;;;6.02;50.23;100805.28;5048448;28;20120;-84
2021/04/26 05:09:49;;;;;;;6.53;3.03;;;;;;;6.13;49.62;100800.06;5055684;28;20056;-85
2021/04/26 05:12:15;;;;;;;4.50;2.72;;;;;;;6.19;49.66;100810.06;5068177;28;20025;-84
2021/04/26 05:14:42;;;;;;;4.35;2.53;;;;;;;6.16;50.89;100811.16;5040860;28;20029;-83
2021/04/26 05:17:07;;;;;;;3.92;2.80;;;;;;;6.33;49.33;100814.28;5064023;28;20055;-83
2021/04/26 05:19:33;;;;;;;6.95;2.92;;;;;;;6.57;49.22;100809.75;5061471;28;20045;-84
2021/04/26 05:21:58;;;;;;;4.60;2.90;;;;;;;6.86;48.17;100805.81;5045362;28;20476;-84
2021/04/26 05:24:24;;;;;;;5.75;3.00;;;;;;;7.08;47.57;100808.44;5050706;28;20045;-82
2021/04/26 05:26:49;;;;;;;6.43;3.20;;;;;;;7.31;46.99;100803.94;5046229;28;20048;-83
2021/04/26 05:29:16;;;;;;;6.43;3.20;;;;;;;7.54;46.83;100823.13;5045145;28;20033;-83
2021/04/26 05:31:41;;;;;;;3.67;2.67;;;;;;;7.70;45.66;100806.94;5048324;28;20033;-84
2021/04/26 05:34:07;;;;;;;4.72;2.70;;;;;;;8.11;45.89;100807.91;5060305;28;20028;-84
2021/04/26 05:36:32;;;;;;;6.78;2.88;;;;;;;8.44;44.89;100808.69;5045964;28;20410;-85
2021/04/26 05:38:59;;;;;;;4.20;2.50;;;;;;;8.67;44.72;100812.81;5051610;28;20036;-86
2021/04/26 05:41:25;;;;;;;6.18;2.90;;;;;;;9.13;43.02;100814.09;5065189;28;20060;-84
2021/04/26 05:43:50;;;;;;;6.53;2.58;;;;;;;9.35;43.22;100820.09;5053323;28;20036;-84
2021/04/26 05:46:16;;;;;;;4.80;2.88;;;;;;;9.47;42.24;100807.63;5040263;28;20501;-85
2021/04/26 05:48:41;;;;;;;6.07;2.90;;;;;;;9.89;40.36;100810.81;5071106;28;20377;-85
2021/04/26 05:51:07;;;;;;;4.70;2.75;;;;;;;9.92;40.02;100813.16;5036914;28;20439;-85
2021/04/26 05:53:32;;;;;;;4.38;2.67;;;;;;;9.87;39.30;100811.94;5053341;28;20044;-85
2021/04/26 05:55:57;;;;;;;6.43;3.13;;;;;;;10.17;40.31;100811.72;5064226;28;20056;-85
2021/04/26 05:58:23;;;;;;;5.22;2.50;;;;;;;10.37;39.78;100815.22;5033837;28;20420;-85
2021/04/26 06:00:49;;;;;;;6.03;2.58;;;;;;;10.69;38.33;100818.44;5045154;28;20048;-85
2021/04/26 06:03:15;;;;;;;4.63;2.30;;;;;;;11.05;38.83;100814.09;5054459;28;20037;-86
2021/04/26 06:05:40;;;;;;;4.55;2.60;;;;;;;11.42;36.55;100803.41;5044000;28;20033;-86
2021/04/26 06:08:05;;;;;;;4.03;2.17;;;;;;;11.21;38.00;100810.78;5072678;28;20036;-86
2021/04/26 06:10:32;;;;;;;8.25;3.17;;;;;;;11.74;36.34;100807.34;5054925;28;20037;-85
2021/04/26 06:12:58;;;;;;;4.45;2.60;;;;;;;11.95;36.69;100809.69;5048516;28;20032;-85
2021/04/26 06:15:25;;;;;;;3.95;1.80;;;;;;;12.55;36.30;100806.28;5056693;28;20029;-85
2021/04/26 06:17:51;;;;;;;5.45;2.70;;;;;;;12.94;33.96;100803.97;5044260;28;20508;-86
2021/04/26 06:20:17;;;;;;;4.15;1.88;;;;;;;13.13;35.01;100802.03;5045582;28;20068;-84
2021/04/26 06:22:42;;;;;;;5.50;2.15;;;;;;;13.23;34.79;100796.56;5044893;28;20037;-85
2021/04/26 06:25:09;;;;;;;8.52;4.03;;;;;;;13.40;34.23;100800.97;5062045;28;20048;-84
2021/04/26 06:27:34;;;;;;;13.68;5.65;;;;;;;13.40;32.29;100800.97;5076839;28;20467;-86
2021/04/26 06:30:00;;;;;;;10.45;4.28;;;;;;;13.29;32.42;100790.66;5061745;28;20025;-86
2021/04/26 06:32:26;;;;;;;4.03;2.17;;;;;;;13.32;33.49;100791.16;5075749;28;20395;-84
2021/04/26 06:34:51;;;;;;;4.80;2.72;;;;;;;13.96;31.86;100782.56;5053398;28;20037;-85
2021/04/26 06:37:17;;;;;;;11.75;5.38;;;;;;;13.85;32.17;100780.22;5059949;28;20476;-85
2021/04/26 06:39:43;;;;;;;4.38;2.22;;;;;;;13.87;32.11;100789.72;5060812;28;20040;-85
2021/04/26 06:42:16;;;;;;;5.05;2.70;;;;;;;13.93;31.67;100788.22;5058795;28;20037;-84
2021/04/26 06:44:41;;;;;;;3.92;2.17;;;;;;;14.09;31.22;100790.84;5079556;28;20056;-85
2021/04/26 06:47:07;;;;;;;4.20;2.42;;;;;;;14.15;31.20;100797.31;5062563;28;20106;-84
2021/04/26 06:49:32;;;;;;;4.88;2.20;;;;;;;14.49;30.94;100786.47;5062381;28;20040;-86
2021/04/26 06:51:57;;;;;;;6.05;2.20;;;;;;;14.20;31.18;100787.81;5072395;28;20423;-85
2021/04/26 06:54:23;;;;;;;4.13;1.98;;;;;;;14.80;30.27;100786.53;5054907;28;20097;-85
2021/04/26 06:56:48;;;;;;;3.42;2.10;;;;;;;14.91;29.97;100789.81;5053056;28;20035;-85
2021/04/26 06:59:14;;;;;;;5.00;2.00;;;;;;;15.57;29.76;100783.09;5048875;28;20025;-85
2021/04/26 07:01:39;;;;;;;3.92;1.90;;;;;;;15.60;28.83;100776.56;5056283;28;20104;-84
2021/04/26 07:04:04;;;;;;;6.45;2.25;;;;;;;15.56;27.08;100781.41;5061826;28;20575;-86
2021/04/26 07:06:30;;;;;;;3.30;1.70;;;;;;;15.09;29.09;100782.41;5059530;28;20043;-86
2021/04/26 07:08:55;;;;;;;5.55;2.40;;;;;;;15.46;27.22;100783.50;5046178;28;20051;-87
2021/04/26 07:11:20;;;;;;;4.22;1.83;;;;;;;14.96;29.52;100790.94;5057939;28;20056;-87
2021/04/26 07:13:46;;;;;;;4.07;1.98;;;;;;;15.29;28.21;100786.25;5055403;28;20028;-85
2021/04/26 07:16:12;;;;;;;4.57;2.40;;;;;;;15.73;27.11;100775.97;5052732;28;20032;-86
2021/04/26 07:18:38;;;;;;;4.30;2.00;;;;;;;14.81;28.60;100768.72;5052364;28;20036;-84
2021/04/26 07:21:03;;;;;;;4.90;2.25;;;;;;;15.32;28.19;100762.94;5050805;28;20043;-84
2021/04/26 07:23:29;;;;;;;3.20;1.75;;;;;;;15.37;29.01;100760.56;5059935;28;20036;-85
2021/04/26 07:25:57;;;;;;;5.35;2.05;;;;;;;15.38;28.18;100765.72;5051722;28;20036;-84
2021/04/26 07:28:22;;;;;;;6.53;1.80;;;;;;;15.67;27.49;100764.19;5077325;28;20047;-85
2021/04/26 07:30:48;;;;;;;5.93;1.63;;;;;;;15.74;28.11;100767.00;5053566;28;20125;-85
2021/04/26 07:33:13;;;;;;;3.08;1.70;;;;;;;16.07;27.66;100765.69;5042834;28;20028;-85
2021/04/26 07:35:39;;;;;;;4.70;2.05;;;;;;;16.53;26.18;100762.00;5056504;28;20024;-85
2021/04/26 07:38:05;;;;;;;4.32;2.05;;;;;;;16.85;25.24;100765.31;5056029;28;20044;-85
2021/04/26 07:40:30;;;;;;;5.47;1.77;;;;;;;16.16;28.06;100766.44;5042114;28;20033;-84
2021/04/26 07:42:55;;;;;;;3.25;1.60;;;;;;;16.62;26.61;100766.25;5068980;28;20039;-84
2021/04/26 07:45:24;;;;;;;3.45;1.83;;;;;;;16.70;26.58;100763.47;5070215;28;20518;-84
2021/04/26 07:47:51;;;;;;;8.00;2.20;;;;;;;17.05;25.28;100755.69;5071351;28;20495;-85
2021/04/26 07:50:17;;;;;;;3.80;1.83;;;;;;;17.09;25.91;100758.81;5057588;28;20056;-86
2021/04/26 07:52:44;;;;;;;2.70;1.40;;;;;;;17.23;26.05;100760.59;5055113;28;20047;-85
2021/04/26 07:55:10;;;;;;;3.10;1.50;;;;;;;17.61;26.20;100763.88;5056922;28;20029;-84
2021/04/26 07:57:35;;;;;;;3.38;1.50;;;;;;;18.49;25.35;100759.97;5063520;28;20519;-85
2021/04/26 08:00:01;;;;;;;2.53;1.45;;;;;;;18.66;23.67;100753.25;5053871;28;20070;-84
2021/04/26 08:02:26;;;;;;;3.05;1.90;;;;;;;18.71;22.97;100760.69;5051208;28;20060;-85
2021/04/26 08:04:51;;;;;;;3.38;2.00;;;;;;;18.80;22.11;100757.69;5047579;28;20487;-86
2021/04/26 08:07:17;;;;;;;6.25;2.10;;;;;;;18.41;22.24;100761.78;5063678;28;20046;-84
2021/04/26 08:09:42;;;;;;;3.13;1.48;;;;;;;17.85;24.16;100753.78;5074441;28;20064;-87
2021/04/26 08:12:08;;;;;;;2.80;1.70;;;;;;;18.41;23.98;100751.09;5063527;28;20028;-86
2021/04/26 08:14:33;;;;;;;2.80;1.60;;;;;;;18.95;23.02;100754.00;5074142;28;20503;-85
2021/04/26 08:16:59;;;;;;;3.50;2.00;;;;;;;18.94;22.42;100755.06;5064926;28;20051;-84
2021/04/26 08:19:24;;;;;;;4.57;1.92;;;;;;;18.77;25.30;100750.03;5047394;28;20029;-84
2021/04/26 08:21:50;;;;;;;2.95;1.60;;;;;;;18.95;24.93;100757.53;5048908;28;20081;-85
2021/04/26 08:24:17;;;;;;;2.85;1.40;;;;;;;19.71;22.60;100743.03;5048401;28;20021;-86
2021/04/26 08:26:43;;;;;;;4.50;1.50;;;;;;;19.94;21.82;100743.44;5048739;28;20040;-85
2021/04/26 08:29:12;;;;;;;2.63;1.33;;;;;;;20.33;23.25;100743.56;5045325;28;20044;-85
2021/04/26 08:31:37;;;;;;;3.90;1.90;;;;;;;20.92;20.94;100741.72;5070730;28;20047;-86
2021/04/26 08:34:03;;;;;;;4.65;1.65;;;;;;;20.41;21.03;100743.34;5067067;28;20048;-85
2021/04/26 08:36:30;;;;;;;3.33;1.48;;;;;;;20.41;20.87;100723.72;5049400;28;20041;-85
2021/04/26 08:38:55;;;;;;;3.60;1.70;;;;;;;20.56;20.59;100727.00;5047798;28;20029;-85
2021/04/26 08:41:24;;;;;;;3.38;1.50;;;;;;;20.21;21.04;100723.75;5063576;28;20519;-84
2021/04/26 08:43:51;;;;;;;3.05;1.60;;;;;;;21.04;20.06;100723.03;5052505;28;20097;-85
2021/04/26 08:46:16;;;;;;;3.63;2.00;;;;;;;21.06;19.59;100729.03;5050245;28;20033;-85
2021/04/26 08:48:42;;;;;;;2.83;1.50;;;;;;;20.98;20.21;100720.19;5044199;28;20033;-84
2021/04/26 08:51:11;;;;;;;2.83;1.30;;;;;;;20.91;21.55;100718.56;5049715;28;20060;-85
2021/04/26 08:53:36;;;;;;;2.50;1.25;;;;;;;21.38;20.78;100709.16;5062868;28;20546;-86
2021/04/26 08:56:05;;;;;;;3.70;1.75;;;;;;;21.34;20.25;100710.63;5058420;28;20036;-85
2021/04/26 08:58:31;;;;;;;2.78;1.65;;;;;;;21.78;19.27;100708.03;5049959;28;20037;-85
2021/04/26 09:00:56;;;;;;;3.67;1.65;;;;;;;21.20;20.48;100703.72;5057173;28;20058;-84
2021/04/26 09:03:31;;;;;;;2.75;1.20;;;;;;;21.11;21.65;100707.69;5063385;28;20037;-84
2021/04/26 09:05:56;;;;;;;2.95;1.48;;;;;;;22.04;19.96;100712.31;5052861;28;20021;-85
2021/04/26 09:08:27;;;;;;;2.83;1.33;;;;;;;22.24;20.27;100712.16;5064255;28;20039;-84
2021/04/26 09:10:58;;;;;;;2.63;1.27;;;;;;;22.22;19.02;100711.56;5062996;28;20613;-84
2021/04/26 09:13:47;;;;;;;3.30;1.73;;;;;;;22.79;17.80;100695.09;5051310;28;20040;-86
2021/04/26 09:16:22;;;;;;;2.88;1.52;;;;;;;22.10;20.12;100706.06;5077435;28;20044;-86
2021/04/26 09:18:54;;;;;;;2.60;1.42;;;;;;;22.20;20.14;100706.38;5063434;28;20044;-86
2021/04/26 09:21:23;;;;;;;2.53;1.45;;;;;;;21.73;19.75;100705.19;5054516;28;20389;-86
2021/04/26 09:24:37;;;;;;;9.00;1.90;;;;;;;21.56;19.84;100691.47;5045526;28;20116;-84
2021/04/26 09:27:09;;;;;;;2.95;1.60;;;;;;;21.06;20.98;100696.78;5044805;28;20092;-85
2021/04/26 09:29:35;;;;;;;3.50;1.70;;;;;;;20.92;21.14;100691.47;5052176;28;20112;-86
2021/04/26 09:32:18;;;;;;;3.05;1.40;;;;;;;20.25;21.42;100688.22;5060100;28;20075;-86
2021/04/26 09:34:45;;;;;;;2.83;1.40;;;;;;;19.93;22.30;100689.97;5078516;28;20499;-86
2021/04/26 09:37:14;;;;;;;3.78;1.40;;;;;;;20.25;22.09;100685.53;5041379;28;20033;-85
2021/04/26 09:40:05;;;;;;;3.25;1.48;;;;;;;19.90;21.92;100685.00;5061238;28;20033;-86
2021/04/26 09:42:56;;;;;;;2.90;1.60;;;;;;;19.04;22.27;100675.94;5060860;28;20041;-85
2021/04/26 09:45:33;;;;;;;3.05;1.52;;;;;;;18.83;23.17;100676.91;5047825;28;20396;-85
2021/04/26 09:48:23;;;;;;;4.50;1.50;;;;;;;19.00;22.69;100676.53;5051259;28;20025;-87
2021/04/26 09:50:48;;;;;;;3.63;1.35;;;;;;;18.38;23.64;100668.50;5045243;28;20582;-85
2021/04/26 09:53:17;;;;;;;3.30;1.60;;;;;;;17.82;24.23;100672.09;5045719;28;20041;-85
2021/04/26 09:55:42;;;;;;;2.88;1.23;;;;;;;18.20;24.67;100669.00;5049389;28;20108;-84
2021/04/26 09:58:09;;;;;;;2.58;1.35;;;;;;;18.47;23.32;100661.09;5051342;28;20048;-85
2021/04/26 10:00:36;;;;;;;3.85;1.80;;;;;;;19.29;21.43;100667.28;5071438;28;20109;-85
2021/04/26 10:03:02;;;;;;;2.78;1.52;;;;;;;18.03;23.44;100663.16;5067143;28;20037;-84
2021/04/26 10:05:28;;;;;;;2.50;1.40;;;;;;;17.35;26.89;100654.00;5079789;28;20037;-85
2021/04/26 10:07:55;;;;;;;3.10;1.70;;;;;;;17.86;24.08;100653.00;5061888;28;20044;-85
2021/04/26 10:10:20;;;;;;;3.15;2.10;;;;;;;17.72;23.81;100660.06;5065468;28;20048;-85
2021/04/26 10:12:46;;;;;;;3.42;1.63;;;;;;;17.20;25.90;100649.56;5061596;28;20037;-85
2021/04/26 10:15:13;;;;;;;2.25;1.30;;;;;;;17.23;25.23;100634.19;5044928;28;20029;-85
2021/04/26 10:17:47;;;;;;;2.72;1.38;;;;;;;17.38;25.77;100649.13;5053739;28;20047;-85
2021/04/26 10:20:13;;;;;;;4.53;1.80;;;;;;;17.67;24.87;100646.47;5057179;28;20037;-86
2021/04/26 10:22:46;;;;;;;4.22;2.20;;;;;;;17.78;24.02;100637.88;5057969;28;20044;-88
2021/04/26 10:25:14;;;;;;;3.15;1.92;;;;;;;17.31;24.61;100631.38;5060613;28;20032;-85
2021/04/26 10:27:45;;;;;;;3.22;1.75;;;;;;;17.54;24.77;100623.97;5061588;28;20037;-83
2021/04/26 10:30:14;;;;;;;4.25;1.77;;;;;;;17.41;24.96;100623.84;5079522;28;20043;-84
2021/04/26 10:33:04;;;;;;;3.75;1.80;;;;;;;17.40;24.21;100620.34;5074130;28;20056;-85
2021/04/26 10:35:47;;;;;;;3.25;1.90;;;;;;;17.46;24.22;100602.69;5059296;28;20143;-84
2021/04/26 10:38:38;;;;;;;4.28;2.00;;;;;;;17.06;25.03;100609.59;5043508;28;20048;-85
2021/04/26 10:41:05;;;;;;;4.80;2.17;;;;;;;16.85;26.29;100600.56;5063438;28;20036;-84
2021/04/26 10:43:32;;;;;;;2.05;1.58;;;;;;;16.93;26.81;100594.28;5065664;28;20033;-85
2021/04/26 10:46:16;;;;;;;4.97;2.03;;;;;;;16.86;26.19;100594.19;5063952;28;20116;-84
2021/04/26 10:49:03;;;;;;;4.32;2.17;;;;;;;17.01;26.01;100594.13;5043422;28;20040;-84
2021/04/26 10:51:28;;;;;;;3.83;1.50;;;;;;;16.86;27.90;100588.88;5058815;28;20033;-85
2021/04/26 10:53:54;;;;;;;3.85;1.77;;;;;;;16.90;27.59;100584.81;5059490;28;20112;-84
2021/04/26 10:56:27;;;;;;;3.67;1.80;;;;;;;16.96;25.96;100585.88;5058883;28;20532;-85
2021/04/26 10:59:18;;;;;;;3.60;2.00;;;;;;;16.94;26.21;100574.53;5058664;28;20036;-85
2021/04/26 11:01:51;;;;;;;4.85;1.90;;;;;;;17.07;25.60;100582.69;5058836;28;20100;-85
2021/04/26 11:04:17;;;;;;;4.38;1.85;;;;;;;17.14;24.90;100567.53;5044007;28;20040;-84
2021/04/26 11:07:00;;;;;;;4.50;1.80;;;;;;;16.94;25.74;100554.00;5042200;28;20059;-85
2021/04/26 11:09:36;;;;;;;4.15;2.10;;;;;;;16.95;26.28;100554.84;5042080;28;20036;-84
2021/04/26 11:12:04;;;;;;;3.13;1.65;;;;;;;16.94;26.09;100548.66;5061085;28;20029;-86
2021/04/26 11:14:30;;;;;;;4.88;1.50;;;;;;;16.73;27.20;100544.16;5044801;28;20033;-84
2021/04/26 11:17:03;;;;;;;3.42;2.00;;;;;;;16.63;25.58;100540.13;5047217;28;20036;-83
2021/04/26 11:19:30;;;;;;;5.75;1.60;;;;;;;16.53;27.12;100519.91;5042297;28;20025;-85
2021/04/26 11:21:57;;;;;;;3.33;1.63;;;;;;;16.63;25.73;100524.13;5041761;28;20029;-84
2021/04/26 11:24:25;;;;;;;3.75;2.13;;;;;;;16.75;25.78;100526.06;5060651;28;20037;-85
2021/04/26 11:27:09;;;;;;;3.17;2.03;;;;;;;16.86;25.64;100515.94;5060981;28;20045;-85
2021/04/26 11:29:35;;;;;;;2.88;1.70;;;;;;;16.61;26.70;100516.28;5045688;28;20032;-84
2021/04/26 11:32:05;;;;;;;2.67;1.50;;;;;;;16.85;24.90;100523.13;5057431;28;20033;-84
2021/04/26 11:35:01;;;;;;;4.20;2.20;;;;;;;16.88;24.62;100513.91;5063577;28;20045;-83